sensor_id;sensor_type;location;lat;lon;timestamp;pressure;altitude;pressure_sealevel;temperature;humidity
20612;BME280;10465;42.686;23.364;2023-03-16T00:02:12;94117.94;;;6.26;75.79
20612;BME280;10465;42.686;23.364;2023-03-16T00:04:37;94115.34;;;6.12;77.20
20612;BME280;10465;42.686;23.364;2023-03-16T00:07:08;94121.75;;;6.19;76.56
20612;BME280;10465;42.686;23.364;2023-03-16T00:09:34;94127.03;;;6.06;76.38
20612;BME280;10465;42.686;23.364;2023-03-16T00:12:02;94097.09;;;5.93;76.21
20612;BME280;10465;42.686;23.364;2023-03-16T00:14:29;94119.13;;;6.19;75.73
20612;BME280;10465;42.686;23.364;2023-03-16T00:16:54;94118.56;;;5.95;74.90
20612;BME280;10465;42.686;23.364;2023-03-16T00:19:20;94125.56;;;6.13;75.14
20612;BME280;10465;42.686;23.364;2023-03-16T00:21:50;94115.75;;;6.05;74.93
20612;BME280;10465;42.686;23.364;2023-03-16T00:24:15;94135.31;;;6.13;75.88
20612;BME280;10465;42.686;23.364;2023-03-16T00:26:42;94111.38;;;6.01;75.81
20612;BME280;10465;42.686;23.364;2023-03-16T00:29:07;94134.91;;;6.06;76.12
20612;BME280;10465;42.686;23.364;2023-03-16T00:31:34;94123.13;;;6.03;75.53
20612;BME280;10465;42.686;23.364;2023-03-16T00:33:59;94139.97;;;6.16;76.01
20612;BME280;10465;42.686;23.364;2023-03-16T00:36:27;94118.88;;;5.93;76.04
20612;BME280;10465;42.686;23.364;2023-03-16T00:38:52;94136.38;;;6.12;75.50
20612;BME280;10465;42.686;23.364;2023-03-16T00:41:18;94083.84;;;5.57;75.06
20612;BME280;10465;42.686;23.364;2023-03-16T00:43:43;94161.75;;;5.89;75.91
20612;BME280;10465;42.686;23.364;2023-03-16T00:46:12;94149.97;;;5.73;75.60
20612;BME280;10465;42.686;23.364;2023-03-16T00:48:41;94139.75;;;5.71;76.30
20612;BME280;10465;42.686;23.364;2023-03-16T00:51:13;94138.78;;;5.81;76.74
20612;BME280;10465;42.686;23.364;2023-03-16T00:53:40;94154.00;;;5.98;77.01
20612;BME280;10465;42.686;23.364;2023-03-16T00:56:06;94152.13;;;5.98;76.94
20612;BME280;10465;42.686;23.364;2023-03-16T00:58:34;94154.75;;;5.98;77.22
20612;BME280;10465;42.686;23.364;2023-03-16T01:01:20;94155.47;;;6.04;76.95
20612;BME280;10465;42.686;23.364;2023-03-16T01:03:46;94144.63;;;5.91;77.09
20612;BME280;10465;42.686;23.364;2023-03-16T01:06:14;94160.41;;;6.05;76.93
20612;BME280;10465;42.686;23.364;2023-03-16T01:08:41;94155.94;;;6.06;76.75
20612;BME280;10465;42.686;23.364;2023-03-16T01:11:09;94159.91;;;6.03;76.92
20612;BME280;10465;42.686;23.364;2023-03-16T01:13:36;94154.00;;;5.98;77.05
20612;BME280;10465;42.686;23.364;2023-03-16T01:16:02;94157.19;;;5.94;76.98
20612;BME280;10465;42.686;23.364;2023-03-16T01:18:28;94145.44;;;5.92;77.11
20612;BME280;10465;42.686;23.364;2023-03-16T01:20:54;94134.50;;;5.85;77.02
20612;BME280;10465;42.686;23.364;2023-03-16T01:23:20;94155.84;;;5.97;77.74
20612;BME280;10465;42.686;23.364;2023-03-16T01:25:46;94155.13;;;5.91;77.02
20612;BME280;10465;42.686;23.364;2023-03-16T01:28:21;94156.50;;;5.89;76.67
20612;BME280;10465;42.686;23.364;2023-03-16T01:30:49;94159.34;;;5.92;76.57
20612;BME280;10465;42.686;23.364;2023-03-16T01:33:20;94160.41;;;5.91;76.34
20612;BME280;10465;42.686;23.364;2023-03-16T01:35:54;94158.03;;;5.90;76.44
20612;BME280;10465;42.686;23.364;2023-03-16T01:38:20;94165.63;;;5.78;76.35
20612;BME280;10465;42.686;23.364;2023-03-16T01:40:50;94161.72;;;5.75;75.77
20612;BME280;10465;42.686;23.364;2023-03-16T01:43:18;94174.78;;;5.80;75.69
20612;BME280;10465;42.686;23.364;2023-03-16T01:48:40;94136.09;;;5.26;75.85
20612;BME280;10465;42.686;23.364;2023-03-16T01:51:33;94177.34;;;5.39;75.43
20612;BME280;10465;42.686;23.364;2023-03-16T01:56:44;94183.78;;;5.14;76.15
20612;BME280;10465;42.686;23.364;2023-03-16T01:59:16;94183.00;;;5.13;76.26
20612;BME280;10465;42.686;23.364;2023-03-16T02:01:45;94177.63;;;4.86;76.40
20612;BME280;10465;42.686;23.364;2023-03-16T02:04:28;94162.38;;;4.74;77.03
20612;BME280;10465;42.686;23.364;2023-03-16T02:06:56;94158.44;;;4.90;76.85
20612;BME280;10465;42.686;23.364;2023-03-16T02:09:23;94185.94;;;5.26;76.97
20612;BME280;10465;42.686;23.364;2023-03-16T02:11:50;94192.41;;;5.14;76.48
20612;BME280;10465;42.686;23.364;2023-03-16T02:14:17;94198.47;;;5.15;76.90
20612;BME280;10465;42.686;23.364;2023-03-16T02:16:42;94171.97;;;4.97;76.82
20612;BME280;10465;42.686;23.364;2023-03-16T02:19:19;94200.22;;;5.19;76.29
20612;BME280;10465;42.686;23.364;2023-03-16T02:22:01;94186.66;;;4.99;76.88
20612;BME280;10465;42.686;23.364;2023-03-16T02:24:27;94186.28;;;5.05;77.45
20612;BME280;10465;42.686;23.364;2023-03-16T02:27:05;94203.97;;;5.13;77.73
20612;BME280;10465;42.686;23.364;2023-03-16T02:30:01;94212.06;;;5.17;77.92
20612;BME280;10465;42.686;23.364;2023-03-16T02:32:30;94228.31;;;5.19;77.91
20612;BME280;10465;42.686;23.364;2023-03-16T02:34:58;94197.16;;;4.99;78.28
20612;BME280;10465;42.686;23.364;2023-03-16T02:37:25;94185.44;;;4.91;78.56
20612;BME280;10465;42.686;23.364;2023-03-16T02:39:51;94208.31;;;5.04;79.27
20612;BME280;10465;42.686;23.364;2023-03-16T02:42:20;94230.22;;;5.13;78.95
20612;BME280;10465;42.686;23.364;2023-03-16T02:44:52;94227.50;;;5.18;79.50
20612;BME280;10465;42.686;23.364;2023-03-16T02:47:28;94220.50;;;5.14;79.03
20612;BME280;10465;42.686;23.364;2023-03-16T02:49:55;94226.34;;;5.11;79.18
20612;BME280;10465;42.686;23.364;2023-03-16T02:52:20;94209.88;;;5.05;79.61
20612;BME280;10465;42.686;23.364;2023-03-16T02:54:46;94231.97;;;5.18;79.96
20612;BME280;10465;42.686;23.364;2023-03-16T02:57:11;94236.75;;;5.16;79.53
20612;BME280;10465;42.686;23.364;2023-03-16T02:59:37;94231.22;;;5.17;80.08
20612;BME280;10465;42.686;23.364;2023-03-16T03:02:02;94232.50;;;5.20;80.12
20612;BME280;10465;42.686;23.364;2023-03-16T03:04:28;94231.28;;;5.12;80.23
20612;BME280;10465;42.686;23.364;2023-03-16T03:06:53;94228.31;;;5.19;79.52
20612;BME280;10465;42.686;23.364;2023-03-16T03:09:19;94233.81;;;5.17;79.72
20612;BME280;10465;42.686;23.364;2023-03-16T03:11:45;94247.13;;;5.07;79.80
20612;BME280;10465;42.686;23.364;2023-03-16T03:14:14;94234.06;;;5.02;79.87
20612;BME280;10465;42.686;23.364;2023-03-16T03:16:41;94251.72;;;5.15;79.77
20612;BME280;10465;42.686;23.364;2023-03-16T03:19:06;94205.13;;;4.69;80.30
20612;BME280;10465;42.686;23.364;2023-03-16T03:21:32;94249.88;;;4.97;79.92
20612;BME280;10465;42.686;23.364;2023-03-16T03:23:57;94238.03;;;4.62;80.95
20612;BME280;10465;42.686;23.364;2023-03-16T03:26:23;94254.53;;;4.81;81.28
20612;BME280;10465;42.686;23.364;2023-03-16T03:28:49;94252.41;;;4.64;81.16
20612;BME280;10465;42.686;23.364;2023-03-16T03:31:16;94251.25;;;4.52;80.59
20612;BME280;10465;42.686;23.364;2023-03-16T03:33:42;94258.19;;;4.42;80.65
20612;BME280;10465;42.686;23.364;2023-03-16T03:36:08;94268.16;;;4.40;81.60
20612;BME280;10465;42.686;23.364;2023-03-16T03:38:35;94245.56;;;4.26;81.00
20612;BME280;10465;42.686;23.364;2023-03-16T03:41:01;94261.81;;;4.46;81.97
20612;BME280;10465;42.686;23.364;2023-03-16T03:43:26;94264.44;;;4.22;82.71
20612;BME280;10465;42.686;23.364;2023-03-16T03:46:02;94268.66;;;4.42;81.86
20612;BME280;10465;42.686;23.364;2023-03-16T03:48:27;94276.38;;;4.34;81.63
20612;BME280;10465;42.686;23.364;2023-03-16T03:50:53;94272.00;;;4.48;81.71
20612;BME280;10465;42.686;23.364;2023-03-16T03:53:19;94277.53;;;4.46;80.84
20612;BME280;10465;42.686;23.364;2023-03-16T03:55:45;94277.03;;;4.20;81.57
20612;BME280;10465;42.686;23.364;2023-03-16T03:58:12;94292.75;;;4.20;81.62
20612;BME280;10465;42.686;23.364;2023-03-16T04:00:38;94256.25;;;4.05;81.19
20612;BME280;10465;42.686;23.364;2023-03-16T04:03:03;94298.44;;;4.28;81.52
20612;BME280;10465;42.686;23.364;2023-03-16T04:05:30;94308.13;;;4.27;81.22
20612;BME280;10465;42.686;23.364;2023-03-16T04:07:56;94301.66;;;4.43;80.84
20612;BME280;10465;42.686;23.364;2023-03-16T04:10:26;94262.88;;;4.21;80.28
20612;BME280;10465;42.686;23.364;2023-03-16T04:12:52;94290.66;;;4.41;79.84
20612;BME280;10465;42.686;23.364;2023-03-16T04:15:18;94297.59;;;4.32;81.11
20612;BME280;10465;42.686;23.364;2023-03-16T04:17:44;94298.72;;;4.26;80.92
20612;BME280;10465;42.686;23.364;2023-03-16T04:20:10;94284.66;;;4.17;81.14
20612;BME280;10465;42.686;23.364;2023-03-16T04:22:40;94281.63;;;4.34;81.39
20612;BME280;10465;42.686;23.364;2023-03-16T04:25:08;94296.53;;;4.33;80.68
20612;BME280;10465;42.686;23.364;2023-03-16T04:27:34;94300.00;;;4.29;81.33
20612;BME280;10465;42.686;23.364;2023-03-16T04:30:04;94229.09;;;3.96;80.34
20612;BME280;10465;42.686;23.364;2023-03-16T04:32:31;94310.25;;;4.49;79.70
20612;BME280;10465;42.686;23.364;2023-03-16T04:34:57;94312.38;;;4.47;79.45
20612;BME280;10465;42.686;23.364;2023-03-16T04:37:22;94323.47;;;4.39;79.87
20612;BME280;10465;42.686;23.364;2023-03-16T04:39:48;94325.94;;;4.30;79.76
20612;BME280;10465;42.686;23.364;2023-03-16T04:42:13;94316.00;;;4.27;80.32
20612;BME280;10465;42.686;23.364;2023-03-16T04:44:39;94337.28;;;4.44;80.78
20612;BME280;10465;42.686;23.364;2023-03-16T04:47:12;94309.19;;;4.26;80.27
20612;BME280;10465;42.686;23.364;2023-03-16T04:49:38;94324.34;;;4.05;80.03
20612;BME280;10465;42.686;23.364;2023-03-16T04:52:04;94338.03;;;4.26;80.47
20612;BME280;10465;42.686;23.364;2023-03-16T04:54:30;94338.44;;;4.33;81.82
20612;BME280;10465;42.686;23.364;2023-03-16T04:56:56;94334.03;;;4.34;79.96
20612;BME280;10465;42.686;23.364;2023-03-16T04:59:22;94344.59;;;4.24;79.45
20612;BME280;10465;42.686;23.364;2023-03-16T05:01:48;94353.06;;;4.39;79.06
20612;BME280;10465;42.686;23.364;2023-03-16T05:04:13;94337.72;;;4.28;78.81
20612;BME280;10465;42.686;23.364;2023-03-16T05:06:39;94362.66;;;4.49;78.49
20612;BME280;10465;42.686;23.364;2023-03-16T05:09:06;94353.97;;;4.30;79.37
20612;BME280;10465;42.686;23.364;2023-03-16T05:11:35;94340.34;;;4.28;79.38
20612;BME280;10465;42.686;23.364;2023-03-16T05:14:01;94367.88;;;4.25;78.94
20612;BME280;10465;42.686;23.364;2023-03-16T05:16:27;94352.72;;;4.22;79.52
20612;BME280;10465;42.686;23.364;2023-03-16T05:18:53;94338.09;;;4.16;78.96
20612;BME280;10465;42.686;23.364;2023-03-16T05:21:18;94357.69;;;4.24;78.90
20612;BME280;10465;42.686;23.364;2023-03-16T05:23:44;94372.25;;;4.35;78.75
20612;BME280;10465;42.686;23.364;2023-03-16T05:26:10;94389.75;;;4.39;79.01
20612;BME280;10465;42.686;23.364;2023-03-16T05:28:37;94391.09;;;4.37;78.67
20612;BME280;10465;42.686;23.364;2023-03-16T05:31:03;94393.44;;;4.38;78.38
20612;BME280;10465;42.686;23.364;2023-03-16T05:33:28;94332.00;;;3.96;78.20
20612;BME280;10465;42.686;23.364;2023-03-16T05:35:54;94372.84;;;4.27;78.16
20612;BME280;10465;42.686;23.364;2023-03-16T05:38:22;94404.25;;;4.03;78.79
20612;BME280;10465;42.686;23.364;2023-03-16T05:40:48;94375.91;;;4.05;78.98
20612;BME280;10465;42.686;23.364;2023-03-16T05:43:18;94384.34;;;4.02;79.32
20612;BME280;10465;42.686;23.364;2023-03-16T05:45:44;94376.34;;;4.17;78.78
20612;BME280;10465;42.686;23.364;2023-03-16T05:48:09;94384.66;;;4.24;79.21
20612;BME280;10465;42.686;23.364;2023-03-16T05:50:35;94404.66;;;4.44;78.48
20612;BME280;10465;42.686;23.364;2023-03-16T05:53:00;94419.69;;;4.33;78.32
20612;BME280;10465;42.686;23.364;2023-03-16T05:55:26;94388.28;;;4.28;78.81
20612;BME280;10465;42.686;23.364;2023-03-16T05:57:51;94429.84;;;4.40;79.07
20612;BME280;10465;42.686;23.364;2023-03-16T06:00:17;94390.19;;;4.22;79.65
20612;BME280;10465;42.686;23.364;2023-03-16T06:02:45;94411.75;;;4.43;78.45
20612;BME280;10465;42.686;23.364;2023-03-16T06:05:14;94412.41;;;4.25;79.48
20612;BME280;10465;42.686;23.364;2023-03-16T06:07:41;94433.16;;;4.21;80.50
20612;BME280;10465;42.686;23.364;2023-03-16T06:10:07;94431.88;;;4.19;81.28
20612;BME280;10465;42.686;23.364;2023-03-16T06:12:33;94437.22;;;4.38;80.00
20612;BME280;10465;42.686;23.364;2023-03-16T06:14:59;94434.06;;;4.36;80.56
20612;BME280;10465;42.686;23.364;2023-03-16T06:17:25;94448.31;;;4.54;80.01
20612;BME280;10465;42.686;23.364;2023-03-16T06:19:51;94446.00;;;4.52;79.40
20612;BME280;10465;42.686;23.364;2023-03-16T06:22:16;94429.53;;;4.46;79.07
20612;BME280;10465;42.686;23.364;2023-03-16T06:24:42;94439.88;;;4.62;79.29
20612;BME280;10465;42.686;23.364;2023-03-16T06:27:08;94443.53;;;4.61;78.54
20612;BME280;10465;42.686;23.364;2023-03-16T06:29:34;94460.25;;;4.70;77.96
20612;BME280;10465;42.686;23.364;2023-03-16T06:31:59;94468.38;;;4.68;77.81
20612;BME280;10465;42.686;23.364;2023-03-16T06:34:25;94468.84;;;4.76;78.37
20612;BME280;10465;42.686;23.364;2023-03-16T06:36:51;94442.94;;;4.69;78.11
20612;BME280;10465;42.686;23.364;2023-03-16T06:39:16;94475.59;;;4.82;77.62
20612;BME280;10465;42.686;23.364;2023-03-16T06:41:42;94483.97;;;4.84;76.91
20612;BME280;10465;42.686;23.364;2023-03-16T06:44:08;94447.94;;;4.70;76.74
20612;BME280;10465;42.686;23.364;2023-03-16T06:46:34;94481.44;;;5.03;76.46
20612;BME280;10465;42.686;23.364;2023-03-16T06:49:00;94476.13;;;5.08;77.16
20612;BME280;10465;42.686;23.364;2023-03-16T06:51:26;94485.72;;;5.17;77.14
20612;BME280;10465;42.686;23.364;2023-03-16T06:53:52;94466.06;;;4.91;75.62
20612;BME280;10465;42.686;23.364;2023-03-16T06:56:17;94494.94;;;5.15;75.45
20612;BME280;10465;42.686;23.364;2023-03-16T06:58:44;94488.88;;;5.14;75.11
20612;BME280;10465;42.686;23.364;2023-03-16T07:01:10;94505.09;;;4.68;75.74
20612;BME280;10465;42.686;23.364;2023-03-16T07:03:37;94523.78;;;4.91;75.04
20612;BME280;10465;42.686;23.364;2023-03-16T07:06:02;94508.31;;;4.60;76.16
20612;BME280;10465;42.686;23.364;2023-03-16T07:08:30;94516.00;;;4.81;76.08
20612;BME280;10465;42.686;23.364;2023-03-16T07:10:56;94490.88;;;4.75;75.56
20612;BME280;10465;42.686;23.364;2023-03-16T07:13:22;94521.63;;;4.93;75.49
20612;BME280;10465;42.686;23.364;2023-03-16T07:15:51;94511.53;;;4.81;76.61
20612;BME280;10465;42.686;23.364;2023-03-16T07:18:17;94517.78;;;4.85;75.64
20612;BME280;10465;42.686;23.364;2023-03-16T07:20:43;94526.06;;;4.97;76.02
20612;BME280;10465;42.686;23.364;2023-03-16T07:23:09;94529.50;;;4.93;76.44
20612;BME280;10465;42.686;23.364;2023-03-16T07:25:35;94536.88;;;4.91;76.41
20612;BME280;10465;42.686;23.364;2023-03-16T07:28:00;94530.41;;;4.83;76.56
20612;BME280;10465;42.686;23.364;2023-03-16T07:30:26;94535.78;;;4.68;77.66
20612;BME280;10465;42.686;23.364;2023-03-16T07:32:51;94530.34;;;4.59;78.42
20612;BME280;10465;42.686;23.364;2023-03-16T07:35:17;94480.50;;;4.30;77.45
20612;BME280;10465;42.686;23.364;2023-03-16T07:37:43;94534.41;;;4.76;77.34
20612;BME280;10465;42.686;23.364;2023-03-16T07:40:09;94537.63;;;4.67;76.76
20612;BME280;10465;42.686;23.364;2023-03-16T07:42:35;94479.59;;;4.45;77.08
20612;BME280;10465;42.686;23.364;2023-03-16T07:45:02;94550.59;;;4.83;76.77
20612;BME280;10465;42.686;23.364;2023-03-16T07:47:28;94548.81;;;5.02;77.19
20612;BME280;10465;42.686;23.364;2023-03-16T07:49:54;94490.81;;;4.80;76.03
20612;BME280;10465;42.686;23.364;2023-03-16T07:52:20;94534.25;;;5.20;76.18
20612;BME280;10465;42.686;23.364;2023-03-16T07:54:46;94552.06;;;5.47;75.31
20612;BME280;10465;42.686;23.364;2023-03-16T07:57:12;94558.09;;;5.24;74.01
20612;BME280;10465;42.686;23.364;2023-03-16T07:59:38;94547.34;;;5.20;73.14
20612;BME280;10465;42.686;23.364;2023-03-16T08:02:04;94561.94;;;5.31;73.60
20612;BME280;10465;42.686;23.364;2023-03-16T08:04:29;94544.56;;;5.11;72.77
20612;BME280;10465;42.686;23.364;2023-03-16T08:06:55;94564.88;;;5.25;72.46
20612;BME280;10465;42.686;23.364;2023-03-16T08:09:25;94532.47;;;5.10;72.96
20612;BME280;10465;42.686;23.364;2023-03-16T08:11:51;94569.75;;;5.36;73.63
20612;BME280;10465;42.686;23.364;2023-03-16T08:14:16;94527.84;;;5.26;73.40
20612;BME280;10465;42.686;23.364;2023-03-16T08:16:41;94565.28;;;5.61;72.85
20612;BME280;10465;42.686;23.364;2023-03-16T08:19:07;94578.25;;;5.52;73.55
20612;BME280;10465;42.686;23.364;2023-03-16T08:21:33;94576.06;;;5.35;73.40
20612;BME280;10465;42.686;23.364;2023-03-16T08:23:58;94548.75;;;5.36;72.83
20612;BME280;10465;42.686;23.364;2023-03-16T08:26:24;94561.19;;;5.26;73.26
20612;BME280;10465;42.686;23.364;2023-03-16T08:28:51;94586.94;;;5.24;73.89
20612;BME280;10465;42.686;23.364;2023-03-16T08:31:18;94586.38;;;5.51;73.72
20612;BME280;10465;42.686;23.364;2023-03-16T08:33:45;94598.47;;;5.52;74.20
20612;BME280;10465;42.686;23.364;2023-03-16T08:36:16;94586.13;;;5.28;72.99
20612;BME280;10465;42.686;23.364;2023-03-16T08:38:42;94536.06;;;4.95;73.46
20612;BME280;10465;42.686;23.364;2023-03-16T08:41:09;94561.97;;;5.26;73.57
20612;BME280;10465;42.686;23.364;2023-03-16T08:43:36;94582.66;;;5.33;72.64
20612;BME280;10465;42.686;23.364;2023-03-16T08:46:02;94592.22;;;5.48;72.59
20612;BME280;10465;42.686;23.364;2023-03-16T08:48:30;94598.72;;;5.55;72.71
20612;BME280;10465;42.686;23.364;2023-03-16T08:50:55;94573.22;;;5.56;71.74
20612;BME280;10465;42.686;23.364;2023-03-16T08:53:21;94593.03;;;5.67;71.30
20612;BME280;10465;42.686;23.364;2023-03-16T08:55:46;94582.13;;;5.60;70.62
20612;BME280;10465;42.686;23.364;2023-03-16T08:58:12;94602.53;;;5.92;70.29
20612;BME280;10465;42.686;23.364;2023-03-16T09:00:38;94602.53;;;5.92;70.07
20612;BME280;10465;42.686;23.364;2023-03-16T09:03:05;94600.06;;;6.01;70.18
20612;BME280;10465;42.686;23.364;2023-03-16T09:05:31;94614.56;;;5.69;68.75
20612;BME280;10465;42.686;23.364;2023-03-16T09:07:57;94613.34;;;5.61;68.44
20612;BME280;10465;42.686;23.364;2023-03-16T09:10:23;94618.72;;;5.51;68.88
20612;BME280;10465;42.686;23.364;2023-03-16T09:12:49;94623.84;;;5.61;69.44
20612;BME280;10465;42.686;23.364;2023-03-16T09:15:17;94614.66;;;5.59;68.61
20612;BME280;10465;42.686;23.364;2023-03-16T09:17:44;94593.63;;;5.40;68.67
20612;BME280;10465;42.686;23.364;2023-03-16T09:20:11;94595.53;;;5.29;68.92
20612;BME280;10465;42.686;23.364;2023-03-16T09:22:37;94604.50;;;5.52;69.03
20612;BME280;10465;42.686;23.364;2023-03-16T09:25:04;94606.78;;;5.59;68.72
20612;BME280;10465;42.686;23.364;2023-03-16T09:27:31;94628.84;;;5.58;67.77
20612;BME280;10465;42.686;23.364;2023-03-16T09:29:57;94615.28;;;5.27;68.30
20612;BME280;10465;42.686;23.364;2023-03-16T09:32:25;94620.34;;;5.42;67.84
20612;BME280;10465;42.686;23.364;2023-03-16T09:34:52;94596.78;;;5.37;68.27
20612;BME280;10465;42.686;23.364;2023-03-16T09:37:17;94622.34;;;5.55;68.88
20612;BME280;10465;42.686;23.364;2023-03-16T09:39:42;94618.72;;;5.46;69.03
20612;BME280;10465;42.686;23.364;2023-03-16T09:45:02;94601.50;;;5.40;69.61
20612;BME280;10465;42.686;23.364;2023-03-16T09:47:32;94633.94;;;5.49;69.68
20612;BME280;10465;42.686;23.364;2023-03-16T09:50:02;94622.97;;;5.42;69.75
20612;BME280;10465;42.686;23.364;2023-03-16T09:55:36;94631.78;;;5.56;69.38
20612;BME280;10465;42.686;23.364;2023-03-16T09:58:20;94642.69;;;5.68;69.40
20612;BME280;10465;42.686;23.364;2023-03-16T10:04:08;94645.75;;;5.76;70.00
20612;BME280;10465;42.686;23.364;2023-03-16T10:12:56;94640.38;;;5.62;71.50
20612;BME280;10465;42.686;23.364;2023-03-16T10:15:25;94642.69;;;5.68;72.58
20612;BME280;10465;42.686;23.364;2023-03-16T10:18:17;94637.44;;;5.68;71.20
20612;BME280;10465;42.686;23.364;2023-03-16T10:20:45;94628.91;;;5.53;70.62
20612;BME280;10465;42.686;23.364;2023-03-16T10:23:17;94634.78;;;5.68;71.04
20612;BME280;10465;42.686;23.364;2023-03-16T10:25:50;94635.34;;;5.65;69.35
20612;BME280;10465;42.686;23.364;2023-03-16T10:28:20;94640.50;;;5.76;68.96
20612;BME280;10465;42.686;23.364;2023-03-16T10:30:47;94631.66;;;5.90;68.77
20612;BME280;10465;42.686;23.364;2023-03-16T10:33:31;94623.97;;;5.99;68.14
20612;BME280;10465;42.686;23.364;2023-03-16T10:41:18;94635.34;;;5.89;67.87
20612;BME280;10465;42.686;23.364;2023-03-16T10:44:12;94638.53;;;5.86;68.66
20612;BME280;10465;42.686;23.364;2023-03-16T10:47:03;94638.50;;;5.91;68.73
20612;BME280;10465;42.686;23.364;2023-03-16T10:49:35;94631.44;;;5.87;68.93
20612;BME280;10465;42.686;23.364;2023-03-16T10:52:07;94639.16;;;6.02;69.52
20612;BME280;10465;42.686;23.364;2023-03-16T10:54:38;94640.78;;;5.98;68.64
20612;BME280;10465;42.686;23.364;2023-03-16T10:57:21;94641.09;;;5.97;68.07
20612;BME280;10465;42.686;23.364;2023-03-16T10:59:49;94635.44;;;6.08;68.13
20612;BME280;10465;42.686;23.364;2023-03-16T11:02:30;94638.22;;;6.17;67.90
20612;BME280;10465;42.686;23.364;2023-03-16T11:04:57;94616.50;;;5.82;67.69
20612;BME280;10465;42.686;23.364;2023-03-16T11:07:23;94628.66;;;6.02;67.82
20612;BME280;10465;42.686;23.364;2023-03-16T11:09:54;94636.47;;;6.07;67.31
20612;BME280;10465;42.686;23.364;2023-03-16T11:12:23;94642.91;;;6.20;67.55
20612;BME280;10465;42.686;23.364;2023-03-16T11:14:49;94634.59;;;6.13;66.35
20612;BME280;10465;42.686;23.364;2023-03-16T11:17:18;94623.63;;;6.06;66.25
20612;BME280;10465;42.686;23.364;2023-03-16T11:19:53;94621.06;;;6.19;66.61
20612;BME280;10465;42.686;23.364;2023-03-16T11:22:23;94639.44;;;6.25;66.23
20612;BME280;10465;42.686;23.364;2023-03-16T11:30:14;94598.41;;;5.81;66.48
20612;BME280;10465;42.686;23.364;2023-03-16T11:32:48;94603.44;;;6.01;66.43
20612;BME280;10465;42.686;23.364;2023-03-16T11:40:51;94650.13;;;6.09;65.81
20612;BME280;10465;42.686;23.364;2023-03-16T11:46:12;94637.69;;;6.15;65.50
20612;BME280;10465;42.686;23.364;2023-03-16T11:54:33;94646.56;;;6.00;65.77
20612;BME280;10465;42.686;23.364;2023-03-16T11:57:08;94642.50;;;5.84;65.84
20612;BME280;10465;42.686;23.364;2023-03-16T12:07:34;94647.78;;;5.55;67.18
20612;BME280;10465;42.686;23.364;2023-03-16T12:15:46;94663.94;;;5.67;67.62
20612;BME280;10465;42.686;23.364;2023-03-16T12:18:20;94564.72;;;5.16;67.33
20612;BME280;10465;42.686;23.364;2023-03-16T12:23:25;94671.88;;;5.62;67.83
20612;BME280;10465;42.686;23.364;2023-03-16T12:25:55;94664.47;;;5.69;67.71
20612;BME280;10465;42.686;23.364;2023-03-16T12:28:26;94665.63;;;5.82;67.53
20612;BME280;10465;42.686;23.364;2023-03-16T12:33:53;94672.13;;;5.89;68.51
20612;BME280;10465;42.686;23.364;2023-03-16T12:39:27;94678.72;;;5.92;68.84
20612;BME280;10465;42.686;23.364;2023-03-16T12:44:40;94683.50;;;5.27;68.80
20612;BME280;10465;42.686;23.364;2023-03-16T12:47:32;94692.56;;;5.39;68.67
20612;BME280;10465;42.686;23.364;2023-03-16T12:50:13;94624.56;;;4.80;69.18
20612;BME280;10465;42.686;23.364;2023-03-16T12:52:48;94692.03;;;5.08;69.61
20612;BME280;10465;42.686;23.364;2023-03-16T12:55:18;94695.97;;;5.11;69.73
20612;BME280;10465;42.686;23.364;2023-03-16T12:57:46;94673.28;;;4.91;71.11
20612;BME280;10465;42.686;23.364;2023-03-16T13:00:13;94705.44;;;5.07;71.92
20612;BME280;10465;42.686;23.364;2023-03-16T13:02:58;94699.03;;;5.18;71.80
20612;BME280;10465;42.686;23.364;2023-03-16T13:05:32;94701.94;;;5.16;73.45
20612;BME280;10465;42.686;23.364;2023-03-16T13:10:33;94697.59;;;4.57;75.93
20612;BME280;10465;42.686;23.364;2023-03-16T13:13:13;94685.06;;;4.49;76.77
20612;BME280;10465;42.686;23.364;2023-03-16T13:15:40;94700.81;;;4.88;76.89
20612;BME280;10465;42.686;23.364;2023-03-16T13:20:54;94710.41;;;5.08;77.08
20612;BME280;10465;42.686;23.364;2023-03-16T13:23:45;94704.41;;;5.03;77.37
20612;BME280;10465;42.686;23.364;2023-03-16T13:28:37;94711.72;;;5.40;77.71
20612;BME280;10465;42.686;23.364;2023-03-16T13:31:05;94704.84;;;5.15;77.72
20612;BME280;10465;42.686;23.364;2023-03-16T13:33:32;94708.50;;;5.19;77.31
20612;BME280;10465;42.686;23.364;2023-03-16T13:36:02;94715.78;;;5.27;78.25
20612;BME280;10465;42.686;23.364;2023-03-16T13:38:30;94699.56;;;5.20;77.63
20612;BME280;10465;42.686;23.364;2023-03-16T13:41:02;94708.94;;;5.26;77.82
20612;BME280;10465;42.686;23.364;2023-03-16T13:43:29;94723.66;;;5.27;78.67
20612;BME280;10465;42.686;23.364;2023-03-16T13:46:15;94727.00;;;5.33;78.15
20612;BME280;10465;42.686;23.364;2023-03-16T13:48:41;94711.22;;;5.38;78.19
20612;BME280;10465;42.686;23.364;2023-03-16T13:51:17;94727.44;;;5.45;77.71
20612;BME280;10465;42.686;23.364;2023-03-16T13:53:46;94722.19;;;5.45;77.11
20612;BME280;10465;42.686;23.364;2023-03-16T13:56:14;94728.97;;;5.51;76.23
20612;BME280;10465;42.686;23.364;2023-03-16T13:58:43;94739.09;;;5.63;76.66
20612;BME280;10465;42.686;23.364;2023-03-16T14:01:25;94736.97;;;5.36;77.09
20612;BME280;10465;42.686;23.364;2023-03-16T14:03:54;94680.72;;;5.13;75.60
20612;BME280;10465;42.686;23.364;2023-03-16T14:06:23;94746.13;;;5.38;76.54
20612;BME280;10465;42.686;23.364;2023-03-16T14:08:52;94728.22;;;5.45;76.49
20612;BME280;10465;42.686;23.364;2023-03-16T14:11:20;94737.16;;;5.44;76.06
20612;BME280;10465;42.686;23.364;2023-03-16T14:13:52;94738.94;;;5.49;76.11
20612;BME280;10465;42.686;23.364;2023-03-16T14:16:20;94724.63;;;5.36;75.60
20612;BME280;10465;42.686;23.364;2023-03-16T14:18:52;94747.03;;;5.24;75.32
20612;BME280;10465;42.686;23.364;2023-03-16T14:21:28;94746.69;;;5.30;75.18
20612;BME280;10465;42.686;23.364;2023-03-16T14:23:59;94752.88;;;5.10;74.99
20612;BME280;10465;42.686;23.364;2023-03-16T14:26:26;94762.25;;;5.21;75.40